sensor_id;sensor_type;location;lat;lon;timestamp;pressure;altitude;pressure_sealevel;temperature;humidity
22047;BME280;11187;49.412;20.956;2022-08-04T00:02:42;95497.22;;;15.99;100.00
22047;BME280;11187;49.412;20.956;2022-08-04T00:06:02;95505.91;;;15.97;100.00
22047;BME280;11187;49.412;20.956;2022-08-04T00:11:29;95499.25;;;15.90;100.00
22047;BME280;11187;49.412;20.956;2022-08-04T00:14:05;95505.31;;;15.89;100.00
22047;BME280;11187;49.412;20.956;2022-08-04T00:16:56;95499.31;;;15.88;100.00
22047;BME280;11187;49.412;20.956;2022-08-04T00:19:39;95497.72;;;15.84;100.00
22047;BME280;11187;49.412;20.956;2022-08-04T00:22:28;95495.34;;;15.78;100.00
22047;BME280;11187;49.412;20.956;2022-08-04T00:25:04;95495.41;;;15.76;100.00
22047;BME280;11187;49.412;20.956;2022-08-04T00:27:53;95501.44;;;15.75;100.00
22047;BME280;11187;49.412;20.956;2022-08-04T00:30:26;95506.69;;;15.74;100.00
22047;BME280;11187;49.412;20.956;2022-08-04T00:33:17;95504.19;;;15.69;100.00
22047;BME280;11187;49.412;20.956;2022-08-04T00:36:12;95502.69;;;15.62;100.00
22047;BME280;11187;49.412;20.956;2022-08-04T00:38:46;95499.47;;;15.55;100.00
22047;BME280;11187;49.412;20.956;2022-08-04T00:41:56;95503.06;;;15.51;100.00
22047;BME280;11187;49.412;20.956;2022-08-04T00:51:42;95503.22;;;15.47;100.00
22047;BME280;11187;49.412;20.956;2022-08-04T01:01:11;95500.03;;;15.37;100.00
22047;BME280;11187;49.412;20.956;2022-08-04T01:04:15;95503.66;;;15.31;100.00
22047;BME280;11187;49.412;20.956;2022-08-04T01:15:43;95512.44;;;15.25;100.00
22047;BME280;11187;49.412;20.956;2022-08-04T01:24:58;95517.78;;;15.19;100.00
22047;BME280;11187;49.412;20.956;2022-08-04T01:34:28;95510.38;;;15.09;100.00
22047;BME280;11187;49.412;20.956;2022-08-04T01:37:30;95501.03;;;15.04;100.00
22047;BME280;11187;49.412;20.956;2022-08-04T01:40:07;95504.56;;;15.00;100.00
22047;BME280;11187;49.412;20.956;2022-08-04T01:43:02;95497.03;;;14.94;100.00
22047;BME280;11187;49.412;20.956;2022-08-04T01:45:58;95498.03;;;14.90;100.00
22047;BME280;11187;49.412;20.956;2022-08-04T01:48:33;95498.09;;;14.87;100.00
22047;BME280;11187;49.412;20.956;2022-08-04T01:51:23;95508.47;;;14.86;100.00
22047;BME280;11187;49.412;20.956;2022-08-04T01:53:57;95500.81;;;14.82;100.00
22047;BME280;11187;49.412;20.956;2022-08-04T01:56:48;95504.38;;;14.78;100.00
22047;BME280;11187;49.412;20.956;2022-08-04T01:59:22;95495.84;;;14.76;100.00
22047;BME280;11187;49.412;20.956;2022-08-04T02:02:10;95501.94;;;14.74;100.00
22047;BME280;11187;49.412;20.956;2022-08-04T02:04:44;95495.97;;;14.72;100.00
22047;BME280;11187;49.412;20.956;2022-08-04T02:13:37;95492.78;;;14.62;100.00
22047;BME280;11187;49.412;20.956;2022-08-04T02:16:32;95492.06;;;14.58;100.00
22047;BME280;11187;49.412;20.956;2022-08-04T02:19:34;95497.38;;;14.51;100.00
22047;BME280;11187;49.412;20.956;2022-08-04T02:22:09;95488.84;;;14.49;100.00
22047;BME280;11187;49.412;20.956;2022-08-04T02:25:07;95487.16;;;14.48;100.00
22047;BME280;11187;49.412;20.956;2022-08-04T02:28:19;95492.41;;;14.45;100.00
22047;BME280;11187;49.412;20.956;2022-08-04T02:33:45;95486.50;;;14.39;100.00
22047;BME280;11187;49.412;20.956;2022-08-04T02:36:39;95484.00;;;14.38;100.00
22047;BME280;11187;49.412;20.956;2022-08-04T02:39:18;95485.78;;;14.36;100.00
22047;BME280;11187;49.412;20.956;2022-08-04T02:42:04;95480.66;;;14.34;100.00
22047;BME280;11187;49.412;20.956;2022-08-04T02:44:38;95485.91;;;14.31;100.00
22047;BME280;11187;49.412;20.956;2022-08-04T02:47:27;95481.69;;;14.27;100.00
22047;BME280;11187;49.412;20.956;2022-08-04T02:50:21;95479.22;;;14.24;100.00
22047;BME280;11187;49.412;20.956;2022-08-04T02:53:11;95480.19;;;14.20;100.00
22047;BME280;11187;49.412;20.956;2022-08-04T02:55:57;95481.06;;;14.19;100.00
22047;BME280;11187;49.412;20.956;2022-08-04T02:58:34;95477.66;;;14.17;100.00
22047;BME280;11187;49.412;20.956;2022-08-04T03:01:21;95480.38;;;14.12;100.00
22047;BME280;11187;49.412;20.956;2022-08-04T03:07:44;95480.56;;;14.06;100.00
22047;BME280;11187;49.412;20.956;2022-08-04T03:11:03;95477.19;;;14.03;100.00
22047;BME280;11187;49.412;20.956;2022-08-04T03:27:09;95482.69;;;13.90;100.00
22047;BME280;11187;49.412;20.956;2022-08-04T03:48:57;95491.50;;;13.80;100.00
22047;BME280;11187;49.412;20.956;2022-08-04T03:55:40;95494.97;;;13.79;100.00
22047;BME280;11187;49.412;20.956;2022-08-04T04:05:03;95497.66;;;13.74;100.00
22047;BME280;11187;49.412;20.956;2022-08-04T04:14:48;95497.53;;;13.79;100.00
22047;BME280;11187;49.412;20.956;2022-08-04T04:27:47;95491.50;;;13.80;100.00
22047;BME280;11187;49.412;20.956;2022-08-04T04:34:07;95500.03;;;13.82;100.00
22047;BME280;11187;49.412;20.956;2022-08-04T04:37:15;95501.72;;;13.83;100.00
22047;BME280;11187;49.412;20.956;2022-08-04T04:40:33;95499.03;;;13.88;100.00
22047;BME280;11187;49.412;20.956;2022-08-04T04:46:40;95508.91;;;14.05;100.00
22047;BME280;11187;49.412;20.956;2022-08-04T04:49:39;95502.56;;;14.18;100.00
22047;BME280;11187;49.412;20.956;2022-08-04T04:52:40;95505.59;;;14.32;100.00
22047;BME280;11187;49.412;20.956;2022-08-04T04:55:23;95503.50;;;14.47;100.00
22047;BME280;11187;49.412;20.956;2022-08-04T04:58:16;95510.81;;;14.62;100.00
22047;BME280;11187;49.412;20.956;2022-08-04T05:01:15;95508.63;;;14.79;100.00
22047;BME280;11187;49.412;20.956;2022-08-04T05:16:44;95506.97;;;15.63;100.00
22047;BME280;11187;49.412;20.956;2022-08-04T05:19:58;95504.00;;;15.77;100.00
22047;BME280;11187;49.412;20.956;2022-08-04T05:22:53;95499.13;;;15.94;100.00
22047;BME280;11187;49.412;20.956;2022-08-04T05:28:51;95501.44;;;16.27;100.00
22047;BME280;11187;49.412;20.956;2022-08-04T05:31:33;95507.84;;;16.42;100.00
22047;BME280;11187;49.412;20.956;2022-08-04T05:34:32;95509.84;;;16.57;100.00
22047;BME280;11187;49.412;20.956;2022-08-04T05:37:28;95500.63;;;16.74;100.00
22047;BME280;11187;49.412;20.956;2022-08-04T05:40:05;95503.53;;;16.89;100.00
22047;BME280;11187;49.412;20.956;2022-08-04T05:42:53;95502.13;;;17.04;100.00
22047;BME280;11187;49.412;20.956;2022-08-04T05:45:28;95503.31;;;17.19;100.00
22047;BME280;11187;49.412;20.956;2022-08-04T05:48:23;95506.22;;;17.33;100.00
22047;BME280;11187;49.412;20.956;2022-08-04T05:50:57;95503.91;;;17.48;100.00
22047;BME280;11187;49.412;20.956;2022-08-04T05:53:44;95516.25;;;17.63;100.00
22047;BME280;11187;49.412;20.956;2022-08-04T05:56:19;95506.19;;;17.78;100.00
22047;BME280;11187;49.412;20.956;2022-08-04T05:59:05;95510.84;;;17.91;100.00
22047;BME280;11187;49.412;20.956;2022-08-04T06:01:40;95512.03;;;18.05;100.00
22047;BME280;11187;49.412;20.956;2022-08-04T06:04:38;95510.56;;;18.20;100.00
22047;BME280;11187;49.412;20.956;2022-08-04T06:07:32;95520.28;;;18.35;100.00
22047;BME280;11187;49.412;20.956;2022-08-04T06:10:47;95510.09;;;18.51;100.00
22047;BME280;11187;49.412;20.956;2022-08-04T06:13:28;95512.97;;;18.64;100.00
22047;BME280;11187;49.412;20.956;2022-08-04T06:16:40;95513.25;;;18.78;100.00
22047;BME280;11187;49.412;20.956;2022-08-04T06:19:18;95502.28;;;18.92;99.62
22047;BME280;11187;49.412;20.956;2022-08-04T06:22:28;95505.13;;;19.05;98.01
22047;BME280;11187;49.412;20.956;2022-08-04T06:25:04;95507.09;;;19.18;97.61
22047;BME280;11187;49.412;20.956;2022-08-04T06:27:53;95508.09;;;19.35;98.52
22047;BME280;11187;49.412;20.956;2022-08-04T06:30:29;95505.63;;;19.51;98.36
22047;BME280;11187;49.412;20.956;2022-08-04T06:33:16;95513.59;;;19.65;97.64
22047;BME280;11187;49.412;20.956;2022-08-04T06:36:34;95509.38;;;19.81;97.91
22047;BME280;11187;49.412;20.956;2022-08-04T06:39:30;95513.06;;;19.95;96.97
22047;BME280;11187;49.412;20.956;2022-08-04T06:42:27;95514.13;;;20.08;97.17
22047;BME280;11187;49.412;20.956;2022-08-04T06:45:22;95508.31;;;20.20;95.17
22047;BME280;11187;49.412;20.956;2022-08-04T06:48:17;95511.06;;;20.35;94.45
22047;BME280;11187;49.412;20.956;2022-08-04T06:50:59;95504.25;;;20.50;94.50
22047;BME280;11187;49.412;20.956;2022-08-04T06:54:13;95507.00;;;20.64;93.34
22047;BME280;11187;49.412;20.956;2022-08-04T06:56:47;95513.16;;;20.79;95.40
22047;BME280;11187;49.412;20.956;2022-08-04T06:59:35;95498.66;;;20.91;94.77
22047;BME280;11187;49.412;20.956;2022-08-04T07:02:13;95499.78;;;21.02;94.72
22047;BME280;11187;49.412;20.956;2022-08-04T07:05:00;95499.28;;;21.12;94.59
22047;BME280;11187;49.412;20.956;2022-08-04T07:07:34;95503.06;;;21.22;93.63
22047;BME280;11187;49.412;20.956;2022-08-04T07:10:37;95502.75;;;21.28;93.94
22047;BME280;11187;49.412;20.956;2022-08-04T07:13:11;95497.81;;;21.39;92.84
22047;BME280;11187;49.412;20.956;2022-08-04T07:16:06;95501.53;;;21.51;94.44
22047;BME280;11187;49.412;20.956;2022-08-04T07:18:40;95503.44;;;21.63;88.25
22047;BME280;11187;49.412;20.956;2022-08-04T07:21:26;95502.66;;;21.77;90.07
22047;BME280;11187;49.412;20.956;2022-08-04T07:24:00;95500.47;;;21.85;88.54
22047;BME280;11187;49.412;20.956;2022-08-04T07:26:49;95497.34;;;21.95;88.56
22047;BME280;11187;49.412;20.956;2022-08-04T07:29:23;95500.09;;;22.07;87.34
22047;BME280;11187;49.412;20.956;2022-08-04T07:32:11;95501.41;;;22.15;81.16
22047;BME280;11187;49.412;20.956;2022-08-04T07:34:47;95496.81;;;22.34;81.36
22047;BME280;11187;49.412;20.956;2022-08-04T07:37:41;95505.41;;;22.50;79.95
22047;BME280;11187;49.412;20.956;2022-08-04T07:40:38;95501.81;;;22.67;77.39
22047;BME280;11187;49.412;20.956;2022-08-04T07:43:14;95504.41;;;22.82;76.21
22047;BME280;11187;49.412;20.956;2022-08-04T07:46:02;95504.31;;;22.98;72.47
22047;BME280;11187;49.412;20.956;2022-08-04T07:48:35;95491.47;;;23.09;77.95
22047;BME280;11187;49.412;20.956;2022-08-04T07:51:21;95499.97;;;23.12;73.28
22047;BME280;11187;49.412;20.956;2022-08-04T07:53:55;95495.84;;;23.23;71.62
22047;BME280;11187;49.412;20.956;2022-08-04T07:56:38;95496.38;;;23.42;71.46
22047;BME280;11187;49.412;20.956;2022-08-04T07:59:18;95491.97;;;23.70;71.87
22047;BME280;11187;49.412;20.956;2022-08-04T08:02:00;95490.47;;;24.07;69.50
22047;BME280;11187;49.412;20.956;2022-08-04T08:04:39;95484.75;;;24.41;68.53
22047;BME280;11187;49.412;20.956;2022-08-04T08:07:13;95490.91;;;24.27;65.92
22047;BME280;11187;49.412;20.956;2022-08-04T08:09:59;95489.44;;;24.23;69.04
22047;BME280;11187;49.412;20.956;2022-08-04T08:12:33;95483.91;;;24.27;69.07
22047;BME280;11187;49.412;20.956;2022-08-04T08:15:24;95493.19;;;24.18;70.28
22047;BME280;11187;49.412;20.956;2022-08-04T08:18:04;95494.91;;;24.32;68.02
22047;BME280;11187;49.412;20.956;2022-08-04T08:20:38;95492.41;;;24.31;65.72
22047;BME280;11187;49.412;20.956;2022-08-04T08:23:25;95497.94;;;24.26;66.07
22047;BME280;11187;49.412;20.956;2022-08-04T08:25:58;95494.44;;;24.53;65.00
22047;BME280;11187;49.412;20.956;2022-08-04T08:28:45;95499.16;;;24.61;66.80
22047;BME280;11187;49.412;20.956;2022-08-04T08:31:19;95498.72;;;24.54;66.89
22047;BME280;11187;49.412;20.956;2022-08-04T08:34:32;95496.78;;;24.30;67.13
22047;BME280;11187;49.412;20.956;2022-08-04T08:37:50;95502.44;;;24.24;66.15
22047;BME280;11187;49.412;20.956;2022-08-04T08:40:45;95498.03;;;24.25;66.01
22047;BME280;11187;49.412;20.956;2022-08-04T08:43:39;95494.38;;;24.27;67.61
22047;BME280;11187;49.412;20.956;2022-08-04T08:47:09;95490.00;;;24.28;67.62
22047;BME280;11187;49.412;20.956;2022-08-04T08:54:02;95493.63;;;24.12;66.86
22047;BME280;11187;49.412;20.956;2022-08-04T09:08:43;95488.25;;;24.14;65.61
22047;BME280;11187;49.412;20.956;2022-08-04T09:14:52;95481.06;;;24.17;66.61
22047;BME280;11187;49.412;20.956;2022-08-04T09:17:29;95491.88;;;24.26;64.20
22047;BME280;11187;49.412;20.956;2022-08-04T09:23:35;95479.66;;;24.39;65.72
22047;BME280;11187;49.412;20.956;2022-08-04T09:26:33;95474.50;;;24.37;66.82
22047;BME280;11187;49.412;20.956;2022-08-04T09:29:35;95478.16;;;24.35;66.56
22047;BME280;11187;49.412;20.956;2022-08-04T09:36:45;95479.09;;;24.34;65.30
22047;BME280;11187;49.412;20.956;2022-08-04T09:40:00;95489.38;;;24.37;66.32
22047;BME280;11187;49.412;20.956;2022-08-04T09:46:39;95476.81;;;24.42;64.02
22047;BME280;11187;49.412;20.956;2022-08-04T09:49:39;95476.06;;;24.40;65.18
22047;BME280;11187;49.412;20.956;2022-08-04T09:52:48;95466.00;;;24.34;66.08
22047;BME280;11187;49.412;20.956;2022-08-04T10:01:25;95461.31;;;24.26;64.21
22047;BME280;11187;49.412;20.956;2022-08-04T10:04:21;95456.38;;;24.22;65.09
22047;BME280;11187;49.412;20.956;2022-08-04T10:10:33;95450.81;;;24.13;64.76
22047;BME280;11187;49.412;20.956;2022-08-04T10:19:25;95459.00;;;24.22;66.94
22047;BME280;11187;49.412;20.956;2022-08-04T10:22:28;95462.44;;;24.22;66.86
22047;BME280;11187;49.412;20.956;2022-08-04T10:26:02;95458.16;;;24.21;65.68
22047;BME280;11187;49.412;20.956;2022-08-04T10:29:09;95463.72;;;24.16;64.36
22047;BME280;11187;49.412;20.956;2022-08-04T10:31:50;95453.63;;;24.10;63.89
22047;BME280;11187;49.412;20.956;2022-08-04T10:35:10;95442.44;;;24.08;66.42
22047;BME280;11187;49.412;20.956;2022-08-04T10:38:20;95441.00;;;24.17;66.89
22047;BME280;11187;49.412;20.956;2022-08-04T10:40:59;95444.78;;;24.26;67.29
22047;BME280;11187;49.412;20.956;2022-08-04T10:44:15;95446.47;;;24.39;66.00
22047;BME280;11187;49.412;20.956;2022-08-04T10:47:13;95444.25;;;24.46;65.77
22047;BME280;11187;49.412;20.956;2022-08-04T10:50:10;95447.09;;;24.56;64.60
22047;BME280;11187;49.412;20.956;2022-08-04T10:53:12;95449.50;;;24.59;62.65
22047;BME280;11187;49.412;20.956;2022-08-04T10:55:56;95442.69;;;24.56;64.21
22047;BME280;11187;49.412;20.956;2022-08-04T10:58:53;95434.97;;;24.55;65.14
22047;BME280;11187;49.412;20.956;2022-08-04T11:01:39;95441.13;;;24.54;63.03
22047;BME280;11187;49.412;20.956;2022-08-04T11:04:46;95434.44;;;24.50;63.73
22047;BME280;11187;49.412;20.956;2022-08-04T11:07:20;95431.81;;;24.50;63.65
22047;BME280;11187;49.412;20.956;2022-08-04T11:10:08;95431.16;;;24.46;66.11
22047;BME280;11187;49.412;20.956;2022-08-04T11:12:45;95432.94;;;24.46;65.27
22047;BME280;11187;49.412;20.956;2022-08-04T11:15:41;95441.13;;;24.54;60.38
22047;BME280;11187;49.412;20.956;2022-08-04T11:18:45;95442.38;;;24.61;63.07
22047;BME280;11187;49.412;20.956;2022-08-04T11:21:42;95440.72;;;24.60;64.14
22047;BME280;11187;49.412;20.956;2022-08-04T11:24:20;95435.34;;;24.62;62.70
22047;BME280;11187;49.412;20.956;2022-08-04T11:27:28;95432.03;;;24.59;65.15
22047;BME280;11187;49.412;20.956;2022-08-04T11:30:42;95435.06;;;24.53;64.80
22047;BME280;11187;49.412;20.956;2022-08-04T11:37:03;95426.38;;;24.53;61.89
22047;BME280;11187;49.412;20.956;2022-08-04T11:39:52;95428.56;;;24.59;63.15
22047;BME280;11187;49.412;20.956;2022-08-04T11:42:51;95424.78;;;24.63;60.11
22047;BME280;11187;49.412;20.956;2022-08-04T11:45:30;95432.44;;;24.66;60.71
22047;BME280;11187;49.412;20.956;2022-08-04T11:48:28;95424.16;;;24.72;61.72
22047;BME280;11187;49.412;20.956;2022-08-04T11:51:04;95424.97;;;24.73;63.14
22047;BME280;11187;49.412;20.956;2022-08-04T11:53:53;95424.97;;;24.73;60.00
22047;BME280;11187;49.412;20.956;2022-08-04T11:56:26;95420.28;;;24.78;59.37
22047;BME280;11187;49.412;20.956;2022-08-04T11:59:19;95413.53;;;24.87;62.16
22047;BME280;11187;49.412;20.956;2022-08-04T12:05:00;95421.31;;;24.88;61.55
22047;BME280;11187;49.412;20.956;2022-08-04T12:07:50;95411.97;;;24.84;60.87
22047;BME280;11187;49.412;20.956;2022-08-04T12:11:20;95411.78;;;24.74;59.72
22047;BME280;11187;49.412;20.956;2022-08-04T12:14:25;95408.75;;;24.68;59.62
22047;BME280;11187;49.412;20.956;2022-08-04T12:17:26;95406.56;;;24.62;62.38
22047;BME280;11187;49.412;20.956;2022-08-04T12:20:21;95400.94;;;24.55;62.31
22047;BME280;11187;49.412;20.956;2022-08-04T12:23:28;95399.84;;;24.45;62.21
22047;BME280;11187;49.412;20.956;2022-08-04T12:26:05;95399.22;;;24.41;62.64
22047;BME280;11187;49.412;20.956;2022-08-04T12:29:00;95396.19;;;24.34;63.28
22047;BME280;11187;49.412;20.956;2022-08-04T12:31:44;95401.03;;;24.28;63.46
22047;BME280;11187;49.412;20.956;2022-08-04T12:34:45;95398.81;;;24.22;63.61
22047;BME280;11187;49.412;20.956;2022-08-04T12:38:06;95394.00;;;24.15;62.47
22047;BME280;11187;49.412;20.956;2022-08-04T12:40:47;95393.47;;;24.10;62.82
22047;BME280;11187;49.412;20.956;2022-08-04T12:43:40;95394.63;;;24.06;62.57
22047;BME280;11187;49.412;20.956;2022-08-04T12:46:23;95393.06;;;24.04;63.71
22047;BME280;11187;49.412;20.956;2022-08-04T12:49:17;95390.22;;;24.07;62.94
22047;BME280;11187;49.412;20.956;2022-08-04T12:51:55;95385.94;;;24.06;62.14
22047;BME280;11187;49.412;20.956;2022-08-04T12:54:52;95383.63;;;24.01;60.59
22047;BME280;11187;49.412;20.956;2022-08-04T12:57:26;95375.06;;;23.99;60.70
22047;BME280;11187;49.412;20.956;2022-08-04T13:00:34;95375.47;;;23.93;61.40
22047;BME280;11187;49.412;20.956;2022-08-04T13:03:10;95368.25;;;23.96;59.91
22047;BME280;11187;49.412;20.956;2022-08-04T13:05:58;95371.59;;;23.99;58.20
22047;BME280;11187;49.412;20.956;2022-08-04T13:08:35;95364.28;;;24.04;57.23
22047;BME280;11187;49.412;20.956;2022-08-04T13:11:23;95362.41;;;24.06;58.45
22047;BME280;11187;49.412;20.956;2022-08-04T13:13:57;95363.88;;;24.10;61.22
22047;BME280;11187;49.412;20.956;2022-08-04T13:17:06;95359.97;;;24.03;61.24
22047;BME280;11187;49.412;20.956;2022-08-04T13:20:07;95360.41;;;23.96;59.94
22047;BME280;11187;49.412;20.956;2022-08-04T13:22:41;95352.75;;;23.93;60.81
22047;BME280;11187;49.412;20.956;2022-08-04T13:25:40;95355.69;;;23.89;62.49
22047;BME280;11187;49.412;20.956;2022-08-04T13:28:38;95356.28;;;23.80;60.59
22047;BME280;11187;49.412;20.956;2022-08-04T13:31:33;95352.25;;;23.75;61.78
22047;BME280;11187;49.412;20.956;2022-08-04T13:34:33;95351.56;;;23.72;61.93
22047;BME280;11187;49.412;20.956;2022-08-04T13:37:35;95354.38;;;23.69;62.25
22047;BME280;11187;49.412;20.956;2022-08-04T13:40:12;95338.72;;;23.69;60.92
22047;BME280;11187;49.412;20.956;2022-08-04T13:43:27;95349.25;;;23.67;62.58
22047;BME280;11187;49.412;20.956;2022-08-04T13:46:55;95350.19;;;23.66;63.68
22047;BME280;11187;49.412;20.956;2022-08-04T13:49:33;95343.38;;;23.64;64.21
22047;BME280;11187;49.412;20.956;2022-08-04T13:52:40;95349.66;;;23.61;64.44
22047;BME280;11187;49.412;20.956;2022-08-04T13:55:34;95340.75;;;23.64;60.88
22047;BME280;11187;49.412;20.956;2022-08-04T13:58:23;95342.25;;;23.68;60.97
22047;BME280;11187;49.412;20.956;2022-08-04T14:01:08;95341.19;;;23.70;61.50
22047;BME280;11187;49.412;20.956;2022-08-04T14:04:01;95341.19;;;23.70;62.01
22047;BME280;11187;49.412;20.956;2022-08-04T14:06:43;95336.09;;;23.69;63.26
22047;BME280;11187;49.412;20.956;2022-08-04T14:09:31;95335.44;;;23.65;63.42
22047;BME280;11187;49.412;20.956;2022-08-04T14:12:25;95334.72;;;23.63;63.17
22047;BME280;11187;49.412;20.956;2022-08-04T14:15:31;95332.19;;;23.62;63.51
22047;BME280;11187;49.412;20.956;2022-08-04T14:18:32;95334.09;;;23.60;63.65
22047;BME280;11187;49.412;20.956;2022-08-04T14:21:15;95336.72;;;23.60;63.18
22047;BME280;11187;49.412;20.956;2022-08-04T14:24:03;95333.88;;;23.63;64.09
22047;BME280;11187;49.412;20.956;2022-08-04T14:26:37;95329.47;;;23.63;62.63
22047;BME280;11187;49.412;20.956;2022-08-04T14:29:37;95332.31;;;23.60;63.40
22047;BME280;11187;49.412;20.956;2022-08-04T14:32:11;95328.00;;;23.59;63.18
22047;BME280;11187;49.412;20.956;2022-08-04T14:35:09;95326.56;;;23.55;63.02
22047;BME280;11187;49.412;20.956;2022-08-04T14:38:47;95330.31;;;23.51;63.10
22047;BME280;11187;49.412;20.956;2022-08-04T14:41:47;95327.78;;;23.49;61.87
22047;BME280;11187;49.412;20.956;2022-08-04T14:44:21;95331.97;;;23.52;60.74
22047;BME280;11187;49.412;20.956;2022-08-04T14:47:15;95333.22;;;23.59;60.33
22047;BME280;11187;49.412;20.956;2022-08-04T14:49:54;95322.69;;;23.61;63.02
22047;BME280;11187;49.412;20.956;2022-08-04T14:52:49;95318.28;;;23.61;60.06
22047;BME280;11187;49.412;20.956;2022-08-04T14:55:45;95326.03;;;23.63;60.55
22047;BME280;11187;49.412;20.956;2022-08-04T14:58:25;95326.97;;;23.62;62.08
22047;BME280;11187;49.412;20.956;2022-08-04T15:01:18;95328.00;;;23.59;61.27
22047;BME280;11187;49.412;20.956;2022-08-04T15:03:52;95321.13;;;23.58;61.52
22047;BME280;11187;49.412;20.956;2022-08-04T15:06:43;95328.66;;;23.63;59.59
22047;BME280;11187;49.412;20.956;2022-08-04T15:09:19;95318.53;;;23.71;58.62
22047;BME280;11187;49.412;20.956;2022-08-04T15:12:06;95322.72;;;23.73;62.62
22047;BME280;11187;49.412;20.956;2022-08-04T15:14:39;95326.47;;;23.69;61.82
22047;BME280;11187;49.412;20.956;2022-08-04T15:17:26;95329.38;;;23.65;62.44
22047;BME280;11187;49.412;20.956;2022-08-04T15:19:59;95328.66;;;23.63;62.19
22047;BME280;11187;49.412;20.956;2022-08-04T15:22:46;95324.56;;;23.59;62.06
22047;BME280;11187;49.412;20.956;2022-08-04T15:25:19;95316.94;;;23.55;63.27
22047;BME280;11187;49.412;20.956;2022-08-04T15:28:10;95318.81;;;23.53;60.18
22047;BME280;11187;49.412;20.956;2022-08-04T15:30:50;95321.22;;;23.56;60.24
22047;BME280;11187;49.412;20.956;2022-08-04T15:34:07;95315.16;;;23.56;61.87
22047;BME280;11187;49.412;20.956;2022-08-04T15:36:55;95320.47;;;23.54;61.81
22047;BME280;11187;49.412;20.956;2022-08-04T15:49:23;95308.97;;;23.44;62.89
22047;BME280;11187;49.412;20.956;2022-08-04T15:52:17;95302.19;;;23.42;62.99
22047;BME280;11187;49.412;20.956;2022-08-04T15:55:33;95310.31;;;23.37;62.96
22047;BME280;11187;49.412;20.956;2022-08-04T15:58:48;95302.66;;;23.34;62.70
22047;BME280;11187;49.412;20.956;2022-08-04T16:01:21;95303.72;;;23.31;63.64
22047;BME280;11187;49.412;20.956;2022-08-04T16:04:20;95303.09;;;23.28;62.15
22047;BME280;11187;49.412;20.956;2022-08-04T16:07:04;95302.34;;;23.26;62.87
22047;BME280;11187;49.412;20.956;2022-08-04T16:09:44;95296.38;;;23.24;64.32
22047;BME280;11187;49.412;20.956;2022-08-04T16:12:52;95300.13;;;23.20;62.27
22047;BME280;11187;49.412;20.956;2022-08-04T16:21:20;95306.56;;;23.14;64.25
22047;BME280;11187;49.412;20.956;2022-08-04T16:24:36;95305.13;;;23.10;65.35
22047;BME280;11187;49.412;20.956;2022-08-04T16:27:10;95304.38;;;23.08;63.41
22047;BME280;11187;49.412;20.956;2022-08-04T16:30:06;95298.41;;;23.06;64.48
22047;BME280;11187;49.412;20.956;2022-08-04T16:32:43;95296.84;;;23.03;63.77
22047;BME280;11187;49.412;20.956;2022-08-04T16:35:30;95304.03;;;23.00;63.74
22047;BME280;11187;49.412;20.956;2022-08-04T16:38:24;95300.59;;;22.99;65.67
22047;BME280;11187;49.412;20.956;2022-08-04T16:41:01;95312.78;;;22.99;66.82
22047;BME280;11187;49.412;20.956;2022-08-04T16:43:48;95308.59;;;22.96;64.86
22047;BME280;11187;49.412;20.956;2022-08-04T16:46:38;95307.72;;;22.96;65.61
22047;BME280;11187;49.412;20.956;2022-08-04T16:50:00;95305.41;;;22.91;66.82
22047;BME280;11187;49.412;20.956;2022-08-04T16:52:42;95310.84;;;22.88;66.25
22047;BME280;11187;49.412;20.956;2022-08-04T16:55:37;95302.38;;;22.84;66.83
22047;BME280;11187;49.412;20.956;2022-08-04T16:58:11;95302.56;;;22.81;66.02
22047;BME280;11187;49.412;20.956;2022-08-04T17:01:06;95295.13;;;22.75;66.52
22047;BME280;11187;49.412;20.956;2022-08-04T17:03:59;95300.63;;;22.70;67.70
22047;BME280;11187;49.412;20.956;2022-08-04T17:06:58;95297.56;;;22.64;66.61
22047;BME280;11187;49.412;20.956;2022-08-04T17:09:32;95295.16;;;22.61;66.65
22047;BME280;11187;49.412;20.956;2022-08-04T17:12:28;95298.91;;;22.57;66.89
22047;BME280;11187;49.412;20.956;2022-08-04T17:15:23;95302.75;;;22.51;68.35
22047;BME280;11187;49.412;20.956;2022-08-04T17:18:14;95307.31;;;22.47;68.83
22047;BME280;11187;49.412;20.956;2022-08-04T17:21:09;95302.38;;;22.43;69.18
22047;BME280;11187;49.412;20.956;2022-08-04T17:23:45;95302.56;;;22.40;68.24
22047;BME280;11187;49.412;20.956;2022-08-04T17:26:56;95309.75;;;22.36;69.11
22047;BME280;11187;49.412;20.956;2022-08-04T17:30:31;95305.91;;;22.27;70.55
22047;BME280;11187;49.412;20.956;2022-08-04T17:33:30;95305.53;;;22.19;71.00
22047;BME280;11187;49.412;20.956;2022-08-04T17:36:28;95306.00;;;22.11;71.34
22047;BME280;11187;49.412;20.956;2022-08-04T17:39:18;95303.78;;;22.05;72.74
22047;BME280;11187;49.412;20.956;2022-08-04T17:41:55;95310.09;;;22.01;74.68
22047;BME280;11187;49.412;20.956;2022-08-04T17:44:49;95306.94;;;21.96;74.73
22047;BME280;11187;49.412;20.956;2022-08-04T17:48:06;95308.97;;;21.91;76.41
22047;BME280;11187;49.412;20.956;2022-08-04T17:51:14;95316.44;;;21.83;76.70
22047;BME280;11187;49.412;20.956;2022-08-04T17:54:31;95315.94;;;21.76;76.67
22047;BME280;11187;49.412;20.956;2022-08-04T17:57:19;95314.44;;;21.72;75.90
22047;BME280;11187;49.412;20.956;2022-08-04T18:00:06;95317.25;;;21.69;76.50
22047;BME280;11187;49.412;20.956;2022-08-04T18:02:52;95320.97;;;21.65;76.99
22047;BME280;11187;49.412;20.956;2022-08-04T18:05:41;95319.53;;;21.59;77.99
22047;BME280;11187;49.412;20.956;2022-08-04T18:08:29;95320.81;;;21.52;78.20
22047;BME280;11187;49.412;20.956;2022-08-04T18:11:29;95329.00;;;21.46;78.46
22047;BME280;11187;49.412;20.956;2022-08-04T18:14:46;95330.19;;;21.40;79.50